Ocala International Airport

About
Name: Ocala International Airport
Identifier:  OCF/KOCF
Serves:  Ocala, Florida
Owner:  City of Ocala
Public/Private:  Public
Local Time:  21. Sep 02:42 EDT
Description: Ocala International Airport is five miles west of Ocala, in Marion County, Florida. It is also known as Ocala International Airport-Jim Taylor Field and was previously Ocala Regional Airport or Jim Taylor Field.
Source: Wikipedia
Location
Runways
Identifier Length (m/ft) Surface
18/36 7,467/7,467 Asphalt
8/26 3,009/3,009 Asphalt
Statistics
Flights per Day:
0 flights
Distance: 330km (205mi)
Flights delayed:
66% (0 flights per day delayed)
Delay Average: 560 minutes
Current Weather
 22 C (Humidity: 88%)
  3kt (5km/h / 3mph) from 40°
  16km (10 mi.)
 
 METAR KOCF 210551Z AUTO 04003KT 10SM CLR 22/20 A3017 RMK AO2 SLP217 T02170200 10256 20217 58005

Current Delays

Departures
N/A
Arrivals
N/A

Destinations

Top Destinations
Airport Flights
per week
Seats
per week
  Gainesville (GNV) 0 46 0 6
  Merritt Island (COI) 0 - 0 0
  Knoxville (TYS) 0 46 0 6
  Atlanta (PDK) 0 - 0 0

Airlines & Planes

Top Airlines
Airline Flights
per Day
Seats
per Day
  Delta Air Lines 0 13
  Centennial Airlines 0 -
Gama Aviation 0 -
Top Plane Types
Model Flights Seats
Boeing B757-200 0.1/day 13/day 13.266666666666667
Pilatus PC-12 0.0/day - 0
Beech B300 Super King Air 350 0.0/day - 0